sensor_id;sensor_type;location;lat;lon;timestamp;pressure;altitude;pressure_sealevel;temperature;humidity
56334;BME280;42240;53.626;55.886;2022-09-03T00:00:55;75597.88;;;-145.10;58.72
56334;BME280;42240;53.626;55.886;2022-09-03T00:02:40;75621.59;;;-145.10;59.15
56334;BME280;42240;53.626;55.886;2022-09-03T00:04:24;75637.44;;;-145.10;59.90
56334;BME280;42240;53.626;55.886;2022-09-03T00:09:30;75667.06;;;-145.10;60.49
56334;BME280;42240;53.626;55.886;2022-09-03T00:11:21;75674.97;;;-145.10;60.81
56334;BME280;42240;53.626;55.886;2022-09-03T00:12:56;75678.94;;;-145.10;61.18
56334;BME280;42240;53.626;55.886;2022-09-03T00:14:33;75690.81;;;-145.10;61.47
56334;BME280;42240;53.626;55.886;2022-09-03T00:16:08;75704.63;;;-145.10;61.73
56334;BME280;42240;53.626;55.886;2022-09-03T00:17:59;75702.66;;;-145.10;61.84
56334;BME280;42240;53.626;55.886;2022-09-03T00:19:40;75696.72;;;-145.10;61.86
56334;BME280;42240;53.626;55.886;2022-09-03T00:21:16;75702.66;;;-145.10;61.89
56334;BME280;42240;53.626;55.886;2022-09-03T00:22:52;75714.53;;;-145.10;62.14
56334;BME280;42240;53.626;55.886;2022-09-03T00:24:27;75728.38;;;-145.10;62.46
56334;BME280;42240;53.626;55.886;2022-09-03T00:27:40;75726.38;;;-145.10;62.99
56334;BME280;42240;53.626;55.886;2022-09-03T00:29:15;75734.28;;;-145.10;62.80
56334;BME280;42240;53.626;55.886;2022-09-03T00:30:50;75748.13;;;-145.10;63.22
56334;BME280;42240;53.626;55.886;2022-09-03T00:36:04;75769.88;;;-145.10;64.17
56334;BME280;42240;53.626;55.886;2022-09-03T00:37:41;75791.63;;;-145.10;64.45
56334;BME280;42240;53.626;55.886;2022-09-03T00:39:16;75799.53;;;-145.10;64.78
56334;BME280;42240;53.626;55.886;2022-09-03T00:46:17;75831.16;;;-145.10;65.69
56334;BME280;42240;53.626;55.886;2022-09-03T00:48:03;75841.06;;;-145.10;65.94
56334;BME280;42240;53.626;55.886;2022-09-03T00:49:49;75870.72;;;-145.10;66.07
56334;BME280;42240;53.626;55.886;2022-09-03T00:55:00;75892.47;;;-145.10;67.50
56334;BME280;42240;53.626;55.886;2022-09-03T00:56:50;75900.38;;;-145.10;67.37
56334;BME280;42240;53.626;55.886;2022-09-03T01:00:18;75912.22;;;-145.10;67.30
56334;BME280;42240;53.626;55.886;2022-09-03T01:05:27;75932.00;;;-145.10;68.48
56334;BME280;42240;53.626;55.886;2022-09-03T01:12:08;75955.72;;;-145.10;69.32
56334;BME280;42240;53.626;55.886;2022-09-03T01:16:03;75953.75;;;-145.10;69.88
56334;BME280;42240;53.626;55.886;2022-09-03T01:22:45;75975.50;;;-145.10;69.73
56334;BME280;42240;53.626;55.886;2022-09-03T01:26:05;76011.09;;;-145.10;69.61
56334;BME280;42240;53.626;55.886;2022-09-03T01:29:38;76003.16;;;-145.10;70.29
56334;BME280;42240;53.626;55.886;2022-09-03T01:33:08;76026.91;;;-145.10;70.46
56334;BME280;42240;53.626;55.886;2022-09-03T01:36:27;76034.81;;;-145.10;70.33
56334;BME280;42240;53.626;55.886;2022-09-03T01:39:49;76024.91;;;-145.10;70.38
56334;BME280;42240;53.626;55.886;2022-09-03T01:41:45;76034.81;;;-145.10;70.29
56334;BME280;42240;53.626;55.886;2022-09-03T01:47:15;76034.81;;;-145.10;70.56
56334;BME280;42240;53.626;55.886;2022-09-03T01:50:40;76044.69;;;-145.10;70.26
56334;BME280;42240;53.626;55.886;2022-09-03T01:54:23;76062.50;;;-145.10;70.67
56334;BME280;42240;53.626;55.886;2022-09-03T01:57:42;76070.41;;;-145.10;70.91
56334;BME280;42240;53.626;55.886;2022-09-03T01:59:26;76046.66;;;-145.10;71.24
56334;BME280;42240;53.626;55.886;2022-09-03T02:01:03;76054.56;;;-145.10;70.75
56334;BME280;42240;53.626;55.886;2022-09-03T02:02:37;76062.50;;;-145.10;71.06
56334;BME280;42240;53.626;55.886;2022-09-03T02:04:20;76070.41;;;-145.10;71.16
56334;BME280;42240;53.626;55.886;2022-09-03T02:05:54;76064.47;;;-145.10;71.39
56334;BME280;42240;53.626;55.886;2022-09-03T02:07:29;76042.72;;;-145.10;71.15
56334;BME280;42240;53.626;55.886;2022-09-03T02:09:05;75983.41;;;-145.10;70.37
56334;BME280;42240;53.626;55.886;2022-09-03T02:12:13;75696.72;;;-145.10;64.65
56334;BME280;42240;53.626;55.886;2022-09-03T02:13:49;75568.22;;;-145.10;61.28
56334;BME280;42240;53.626;55.886;2022-09-03T02:15:24;75566.25;;;-145.10;59.93
56334;BME280;42240;53.626;55.886;2022-09-03T02:16:57;75580.09;;;-145.10;59.50
56334;BME280;42240;53.626;55.886;2022-09-03T02:18:32;75501.03;;;-145.10;58.13
56334;BME280;42240;53.626;55.886;2022-09-03T02:20:08;75390.31;;;-145.10;55.88
56334;BME280;42240;53.626;55.886;2022-09-03T02:21:51;75305.31;;;-145.10;54.25
56334;BME280;42240;53.626;55.886;2022-09-03T02:23:24;75232.19;;;-145.10;51.81
56334;BME280;42240;53.626;55.886;2022-09-03T02:24:59;75131.38;;;-145.10;50.48
56334;BME280;42240;53.626;55.886;2022-09-03T02:26:34;75079.97;;;-145.10;47.83
56334;BME280;42240;53.626;55.886;2022-09-03T02:28:07;74973.22;;;-145.10;46.85
56334;BME280;42240;53.626;55.886;2022-09-03T02:29:48;74998.94;;;-145.10;45.53
56334;BME280;42240;53.626;55.886;2022-09-03T02:31:21;74921.84;;;-145.10;44.21
56334;BME280;42240;53.626;55.886;2022-09-03T02:32:54;74834.88;;;-145.10;43.04
56334;BME280;42240;53.626;55.886;2022-09-03T02:34:26;74858.59;;;-145.10;42.50
56334;BME280;42240;53.626;55.886;2022-09-03T02:35:59;74846.72;;;-145.10;42.50
56334;BME280;42240;53.626;55.886;2022-09-03T02:37:32;74880.34;;;-145.10;42.29
56334;BME280;42240;53.626;55.886;2022-09-03T02:39:06;74813.13;;;-145.10;42.16
56334;BME280;42240;53.626;55.886;2022-09-03T02:40:39;74826.97;;;-145.10;42.31
56334;BME280;42240;53.626;55.886;2022-09-03T02:42:12;74813.13;;;-145.10;41.85
56334;BME280;42240;53.626;55.886;2022-09-03T02:45:27;74761.75;;;-145.10;40.93
56334;BME280;42240;53.626;55.886;2022-09-03T02:47:01;74672.81;;;-145.10;39.69
56334;BME280;42240;53.626;55.886;2022-09-03T02:48:35;74631.28;;;-145.10;39.34
56334;BME280;42240;53.626;55.886;2022-09-03T02:50:08;74615.47;;;-145.10;38.67
56334;BME280;42240;53.626;55.886;2022-09-03T02:51:42;74611.53;;;-145.10;38.83
56334;BME280;42240;53.626;55.886;2022-09-03T02:53:15;74601.66;;;-145.10;38.42
56334;BME280;42240;53.626;55.886;2022-09-03T02:54:48;74564.09;;;-145.10;37.53
56334;BME280;42240;53.626;55.886;2022-09-03T02:56:21;74498.88;;;-145.10;37.21
56334;BME280;42240;53.626;55.886;2022-09-03T02:57:59;74479.13;;;-145.10;36.64
56334;BME280;42240;53.626;55.886;2022-09-03T02:59:31;74492.94;;;-145.10;36.34
56334;BME280;42240;53.626;55.886;2022-09-03T03:01:04;74431.69;;;-145.10;35.74
56334;BME280;42240;53.626;55.886;2022-09-03T03:02:37;74487.03;;;-145.10;36.46
56334;BME280;42240;53.626;55.886;2022-09-03T03:04:10;74425.75;;;-145.10;35.70
56334;BME280;42240;53.626;55.886;2022-09-03T03:05:50;74388.19;;;-145.10;35.21
56334;BME280;42240;53.626;55.886;2022-09-03T03:07:23;74496.91;;;-145.10;35.61
56334;BME280;42240;53.626;55.886;2022-09-03T03:08:57;74425.75;;;-145.10;35.70
56334;BME280;42240;53.626;55.886;2022-09-03T03:10:31;74427.72;;;-145.10;35.87
56334;BME280;42240;53.626;55.886;2022-09-03T03:12:03;74469.22;;;-145.10;35.80
56334;BME280;42240;53.626;55.886;2022-09-03T03:13:36;74443.53;;;-145.10;35.65
56334;BME280;42240;53.626;55.886;2022-09-03T03:15:09;74429.72;;;-145.10;35.21
56334;BME280;42240;53.626;55.886;2022-09-03T03:16:42;74461.31;;;-145.10;35.42
56334;BME280;42240;53.626;55.886;2022-09-03T03:18:15;74350.66;;;-145.10;34.76
56334;BME280;42240;53.626;55.886;2022-09-03T03:19:48;74281.47;;;-145.10;34.20
56334;BME280;42240;53.626;55.886;2022-09-03T03:21:21;74285.44;;;-145.10;33.55
56334;BME280;42240;53.626;55.886;2022-09-03T03:22:54;74249.88;;;-145.10;33.22
56334;BME280;42240;53.626;55.886;2022-09-03T03:24:27;74192.56;;;-145.10;32.48
56334;BME280;42240;53.626;55.886;2022-09-03T03:26:00;74200.47;;;-145.10;32.21
56334;BME280;42240;53.626;55.886;2022-09-03T03:27:33;74158.97;;;-145.10;31.92
56334;BME280;42240;53.626;55.886;2022-09-03T03:29:08;74062.13;;;-145.10;31.52
56334;BME280;42240;53.626;55.886;2022-09-03T03:30:46;74129.31;;;-145.10;31.14
56334;BME280;42240;53.626;55.886;2022-09-03T03:32:20;74135.25;;;-145.10;31.07
56334;BME280;42240;53.626;55.886;2022-09-03T03:33:53;74058.19;;;-145.10;31.07
56334;BME280;42240;53.626;55.886;2022-09-03T03:35:26;74113.50;;;-145.10;30.85
56334;BME280;42240;53.626;55.886;2022-09-03T03:36:59;74040.38;;;-145.10;30.61
56334;BME280;42240;53.626;55.886;2022-09-03T03:38:31;74016.69;;;-145.10;30.45
56334;BME280;42240;53.626;55.886;2022-09-03T03:40:04;73951.47;;;-145.10;30.06
56334;BME280;42240;53.626;55.886;2022-09-03T03:41:39;73900.09;;;-145.10;29.78
56334;BME280;42240;53.626;55.886;2022-09-03T03:43:12;73852.66;;;-145.10;29.42
56334;BME280;42240;53.626;55.886;2022-09-03T03:44:45;73848.72;;;-145.10;28.41
56334;BME280;42240;53.626;55.886;2022-09-03T03:46:18;73801.28;;;-145.10;28.65
56334;BME280;42240;53.626;55.886;2022-09-03T03:47:51;73813.13;;;-145.10;28.51
56334;BME280;42240;53.626;55.886;2022-09-03T03:49:24;73773.63;;;-145.10;28.31
56334;BME280;42240;53.626;55.886;2022-09-03T03:51:00;73732.13;;;-145.10;28.26
56334;BME280;42240;53.626;55.886;2022-09-03T03:52:35;73785.47;;;-145.10;28.19
56334;BME280;42240;53.626;55.886;2022-09-03T03:54:08;73809.19;;;-145.10;27.93
56334;BME280;42240;53.626;55.886;2022-09-03T03:55:42;73817.09;;;-145.10;28.13
56334;BME280;42240;53.626;55.886;2022-09-03T03:57:15;73749.91;;;-145.10;28.52
56334;BME280;42240;53.626;55.886;2022-09-03T03:58:47;73765.72;;;-145.10;27.91
56334;BME280;42240;53.626;55.886;2022-09-03T04:00:20;73860.56;;;-145.10;27.83
56334;BME280;42240;53.626;55.886;2022-09-03T04:01:55;73757.81;;;-145.10;27.85
56334;BME280;42240;53.626;55.886;2022-09-03T04:03:29;73777.56;;;-145.10;28.07
56334;BME280;42240;53.626;55.886;2022-09-03T04:05:03;73777.56;;;-145.10;27.57
56334;BME280;42240;53.626;55.886;2022-09-03T04:06:38;73757.81;;;-145.10;27.81
56334;BME280;42240;53.626;55.886;2022-09-03T04:08:13;73785.47;;;-145.10;27.82
56334;BME280;42240;53.626;55.886;2022-09-03T04:09:45;73801.28;;;-145.10;27.99
56334;BME280;42240;53.626;55.886;2022-09-03T04:11:19;73791.41;;;-145.10;27.66
56334;BME280;42240;53.626;55.886;2022-09-03T04:12:53;73785.47;;;-145.10;27.99
56334;BME280;42240;53.626;55.886;2022-09-03T04:14:25;73718.28;;;-145.10;27.50
56334;BME280;42240;53.626;55.886;2022-09-03T04:16:02;73755.84;;;-145.10;27.59
56334;BME280;42240;53.626;55.886;2022-09-03T04:17:35;73666.91;;;-145.10;27.38
56334;BME280;42240;53.626;55.886;2022-09-03T04:19:08;73777.56;;;-145.10;27.63
56334;BME280;42240;53.626;55.886;2022-09-03T04:20:41;73751.88;;;-145.10;27.50
56334;BME280;42240;53.626;55.886;2022-09-03T04:22:13;73846.72;;;-145.10;27.79
56334;BME280;42240;53.626;55.886;2022-09-03T04:23:47;73757.81;;;-145.10;27.71
56334;BME280;42240;53.626;55.886;2022-09-03T04:25:20;73730.16;;;-145.10;27.58
56334;BME280;42240;53.626;55.886;2022-09-03T04:26:53;73757.81;;;-145.10;27.65
56334;BME280;42240;53.626;55.886;2022-09-03T04:28:26;73700.50;;;-145.10;27.72
56334;BME280;42240;53.626;55.886;2022-09-03T04:29:59;73706.44;;;-145.10;27.51
56334;BME280;42240;53.626;55.886;2022-09-03T04:31:34;73706.44;;;-145.10;27.42
56334;BME280;42240;53.626;55.886;2022-09-03T04:33:08;73726.19;;;-145.10;27.45
56334;BME280;42240;53.626;55.886;2022-09-03T04:34:47;73785.47;;;-145.10;27.52
56334;BME280;42240;53.626;55.886;2022-09-03T04:36:21;73710.38;;;-145.10;27.29
56334;BME280;42240;53.626;55.886;2022-09-03T04:37:54;73732.13;;;-145.10;27.34
56334;BME280;42240;53.626;55.886;2022-09-03T04:39:28;73676.78;;;-145.10;26.79
56334;BME280;42240;53.626;55.886;2022-09-03T04:41:01;73682.72;;;-145.10;26.86
56334;BME280;42240;53.626;55.886;2022-09-03T04:42:34;73694.59;;;-145.10;26.67
56334;BME280;42240;53.626;55.886;2022-09-03T04:44:07;73647.16;;;-145.10;26.84
56334;BME280;42240;53.626;55.886;2022-09-03T04:45:40;73666.91;;;-145.10;26.77
56334;BME280;42240;53.626;55.886;2022-09-03T04:47:12;73666.91;;;-145.10;26.55
56334;BME280;42240;53.626;55.886;2022-09-03T04:48:47;73678.78;;;-145.10;26.41
56334;BME280;42240;53.626;55.886;2022-09-03T04:50:20;73771.66;;;-145.10;26.52
56334;BME280;42240;53.626;55.886;2022-09-03T04:52:02;73595.78;;;-145.10;26.70
56334;BME280;42240;53.626;55.886;2022-09-03T04:53:36;73718.28;;;-145.10;26.29
56334;BME280;42240;53.626;55.886;2022-09-03T04:55:09;73698.53;;;-145.10;26.36
56334;BME280;42240;53.626;55.886;2022-09-03T04:56:42;73611.59;;;-145.10;26.16
56334;BME280;42240;53.626;55.886;2022-09-03T04:58:15;73718.28;;;-145.10;26.61
56334;BME280;42240;53.626;55.886;2022-09-03T04:59:48;73666.91;;;-145.10;26.13
56334;BME280;42240;53.626;55.886;2022-09-03T05:01:21;73734.09;;;-145.10;26.06
56334;BME280;42240;53.626;55.886;2022-09-03T05:02:54;73666.91;;;-145.10;25.98
56334;BME280;42240;53.626;55.886;2022-09-03T05:04:27;73783.50;;;-145.10;26.22
56334;BME280;42240;53.626;55.886;2022-09-03T05:05:59;73651.09;;;-145.10;25.53
56334;BME280;42240;53.626;55.886;2022-09-03T05:07:33;73682.72;;;-145.10;25.84
56334;BME280;42240;53.626;55.886;2022-09-03T05:09:10;73625.41;;;-145.10;25.88
56334;BME280;42240;53.626;55.886;2022-09-03T05:10:43;73670.88;;;-145.10;24.95
56334;BME280;42240;53.626;55.886;2022-09-03T05:12:16;73694.59;;;-145.10;25.19
56334;BME280;42240;53.626;55.886;2022-09-03T05:13:50;73611.59;;;-145.10;24.93
56334;BME280;42240;53.626;55.886;2022-09-03T05:15:23;73607.63;;;-145.10;24.75
56334;BME280;42240;53.626;55.886;2022-09-03T05:16:56;73477.22;;;-145.10;25.00
56334;BME280;42240;53.626;55.886;2022-09-03T05:18:29;73508.84;;;-145.10;24.93
56334;BME280;42240;53.626;55.886;2022-09-03T05:20:01;73530.56;;;-145.10;24.39
56334;BME280;42240;53.626;55.886;2022-09-03T05:21:34;73528.59;;;-145.10;24.94
56334;BME280;42240;53.626;55.886;2022-09-03T05:23:07;73500.94;;;-145.10;24.89
56334;BME280;42240;53.626;55.886;2022-09-03T05:24:40;73512.78;;;-145.10;24.74
56334;BME280;42240;53.626;55.886;2022-09-03T05:26:14;73520.69;;;-145.10;24.62
56334;BME280;42240;53.626;55.886;2022-09-03T05:27:48;73516.75;;;-145.10;24.63
56334;BME280;42240;53.626;55.886;2022-09-03T05:29:21;73528.59;;;-145.10;24.74
56334;BME280;42240;53.626;55.886;2022-09-03T05:32:31;73591.84;;;-145.10;24.48
56334;BME280;42240;53.626;55.886;2022-09-03T05:34:22;73674.81;;;-145.10;25.33
56334;BME280;42240;53.626;55.886;2022-09-03T05:36:04;73736.06;;;-145.10;24.59
56334;BME280;42240;53.626;55.886;2022-09-03T05:37:37;73730.16;;;-145.10;24.29
56334;BME280;42240;53.626;55.886;2022-09-03T05:39:11;73777.56;;;-145.10;24.52
56334;BME280;42240;53.626;55.886;2022-09-03T05:40:43;73742.00;;;-145.10;24.66
56334;BME280;42240;53.626;55.886;2022-09-03T05:42:16;73793.38;;;-145.10;25.22
56334;BME280;42240;53.626;55.886;2022-09-03T05:43:50;73734.09;;;-145.10;25.14
56334;BME280;42240;53.626;55.886;2022-09-03T05:45:27;73718.28;;;-145.10;25.23
56334;BME280;42240;53.626;55.886;2022-09-03T05:49:26;73755.84;;;-145.10;24.79
56334;BME280;42240;53.626;55.886;2022-09-03T05:51:04;73797.34;;;-145.10;24.33
56334;BME280;42240;53.626;55.886;2022-09-03T05:52:37;73817.09;;;-145.10;24.50
56334;BME280;42240;53.626;55.886;2022-09-03T05:54:09;73884.28;;;-145.10;25.00
56334;BME280;42240;53.626;55.886;2022-09-03T05:55:42;73860.56;;;-145.10;25.33
56334;BME280;42240;53.626;55.886;2022-09-03T05:57:15;73919.84;;;-145.10;25.07
56334;BME280;42240;53.626;55.886;2022-09-03T05:58:49;73902.06;;;-145.10;25.07
56334;BME280;42240;53.626;55.886;2022-09-03T06:00:22;73852.66;;;-145.10;24.99
56334;BME280;42240;53.626;55.886;2022-09-03T06:01:55;73870.44;;;-145.10;24.99
56334;BME280;42240;53.626;55.886;2022-09-03T06:03:31;73801.28;;;-145.10;24.61
56334;BME280;42240;53.626;55.886;2022-09-03T06:05:04;73858.59;;;-145.10;24.49
56334;BME280;42240;53.626;55.886;2022-09-03T06:06:37;73745.94;;;-145.10;24.19
56334;BME280;42240;53.626;55.886;2022-09-03T06:08:11;73751.88;;;-145.10;24.26
56334;BME280;42240;53.626;55.886;2022-09-03T06:09:43;73730.16;;;-145.10;24.54
56334;BME280;42240;53.626;55.886;2022-09-03T06:11:16;73751.88;;;-145.10;24.67
56334;BME280;42240;53.626;55.886;2022-09-03T06:12:50;73821.03;;;-145.10;24.45
56334;BME280;42240;53.626;55.886;2022-09-03T06:14:23;73825.00;;;-145.10;24.24
56334;BME280;42240;53.626;55.886;2022-09-03T06:15:57;73745.94;;;-145.10;24.29
56334;BME280;42240;53.626;55.886;2022-09-03T06:17:30;73864.50;;;-145.10;24.70
56334;BME280;42240;53.626;55.886;2022-09-03T06:19:03;73840.81;;;-145.10;25.19
56334;BME280;42240;53.626;55.886;2022-09-03T06:20:41;73856.63;;;-145.10;24.89
56334;BME280;42240;53.626;55.886;2022-09-03T06:22:14;73890.19;;;-145.10;24.74
56334;BME280;42240;53.626;55.886;2022-09-03T06:23:51;73852.66;;;-145.10;24.96
56334;BME280;42240;53.626;55.886;2022-09-03T06:25:24;73894.16;;;-145.10;25.14
56334;BME280;42240;53.626;55.886;2022-09-03T06:26:57;73832.91;;;-145.10;25.12
56334;BME280;42240;53.626;55.886;2022-09-03T06:28:31;73809.19;;;-145.10;25.41
56334;BME280;42240;53.626;55.886;2022-09-03T06:30:06;73939.59;;;-145.10;25.55
56334;BME280;42240;53.626;55.886;2022-09-03T06:31:39;73979.13;;;-145.10;26.26
56334;BME280;42240;53.626;55.886;2022-09-03T06:33:12;74070.03;;;-145.10;25.92
56334;BME280;42240;53.626;55.886;2022-09-03T06:34:45;74058.19;;;-145.10;26.24
56334;BME280;42240;53.626;55.886;2022-09-03T06:36:18;74081.88;;;-145.10;26.01
56334;BME280;42240;53.626;55.886;2022-09-03T06:37:51;74160.94;;;-145.10;26.60
56334;BME280;42240;53.626;55.886;2022-09-03T06:39:24;74234.06;;;-145.10;27.12
56334;BME280;42240;53.626;55.886;2022-09-03T06:40:59;74236.03;;;-145.10;26.84
56334;BME280;42240;53.626;55.886;2022-09-03T06:42:35;74251.84;;;-145.10;26.92
56334;BME280;42240;53.626;55.886;2022-09-03T06:44:08;74263.69;;;-145.10;27.18
56334;BME280;42240;53.626;55.886;2022-09-03T06:45:51;74263.69;;;-145.10;27.05
56334;BME280;42240;53.626;55.886;2022-09-03T06:47:24;74239.97;;;-145.10;27.01
56334;BME280;42240;53.626;55.886;2022-09-03T06:48:57;74285.44;;;-145.10;27.09
56334;BME280;42240;53.626;55.886;2022-09-03T06:50:30;74245.91;;;-145.10;27.45
56334;BME280;42240;53.626;55.886;2022-09-03T06:52:05;74307.19;;;-145.10;27.05
56334;BME280;42240;53.626;55.886;2022-09-03T06:53:39;74406.00;;;-145.10;27.57
56334;BME280;42240;53.626;55.886;2022-09-03T06:55:12;74356.59;;;-145.10;27.96
56334;BME280;42240;53.626;55.886;2022-09-03T06:56:45;74423.78;;;-145.10;27.84
56334;BME280;42240;53.626;55.886;2022-09-03T06:58:17;74409.94;;;-145.10;28.38
56334;BME280;42240;53.626;55.886;2022-09-03T06:59:50;74457.38;;;-145.10;28.57
56334;BME280;42240;53.626;55.886;2022-09-03T07:01:27;74494.94;;;-145.10;28.44
56334;BME280;42240;53.626;55.886;2022-09-03T07:03:02;74459.34;;;-145.10;28.74
56334;BME280;42240;53.626;55.886;2022-09-03T07:04:36;74471.22;;;-145.10;28.93
56334;BME280;42240;53.626;55.886;2022-09-03T07:06:13;74496.91;;;-145.10;29.05
56334;BME280;42240;53.626;55.886;2022-09-03T07:07:46;74520.63;;;-145.10;28.87
56334;BME280;42240;53.626;55.886;2022-09-03T07:09:19;74554.22;;;-145.10;29.13
56334;BME280;42240;53.626;55.886;2022-09-03T07:10:52;74496.91;;;-145.10;29.22
56334;BME280;42240;53.626;55.886;2022-09-03T07:12:25;74512.72;;;-145.10;28.92
56334;BME280;42240;53.626;55.886;2022-09-03T07:13:58;74548.28;;;-145.10;29.11
56334;BME280;42240;53.626;55.886;2022-09-03T07:15:31;74577.94;;;-145.10;29.16
56334;BME280;42240;53.626;55.886;2022-09-03T07:17:04;74645.13;;;-145.10;28.65
56334;BME280;42240;53.626;55.886;2022-09-03T07:18:37;74649.09;;;-145.10;28.61
56334;BME280;42240;53.626;55.886;2022-09-03T07:20:10;74601.66;;;-145.10;28.92
56334;BME280;42240;53.626;55.886;2022-09-03T07:21:43;74615.47;;;-145.10;29.31
56334;BME280;42240;53.626;55.886;2022-09-03T07:23:21;74615.47;;;-145.10;29.04
56334;BME280;42240;53.626;55.886;2022-09-03T07:24:54;74611.53;;;-145.10;29.33
56334;BME280;42240;53.626;55.886;2022-09-03T07:26:28;74572.00;;;-145.10;29.30
56334;BME280;42240;53.626;55.886;2022-09-03T07:28:04;74603.63;;;-145.10;28.65
56334;BME280;42240;53.626;55.886;2022-09-03T07:29:38;74613.50;;;-145.10;28.94
56334;BME280;42240;53.626;55.886;2022-09-03T07:31:12;74585.84;;;-145.10;29.13
56334;BME280;42240;53.626;55.886;2022-09-03T07:32:46;74575.97;;;-145.10;28.57
56334;BME280;42240;53.626;55.886;2022-09-03T07:34:19;74564.09;;;-145.10;29.10
56334;BME280;42240;53.626;55.886;2022-09-03T07:36:01;74556.19;;;-145.10;28.30
56334;BME280;42240;53.626;55.886;2022-09-03T07:37:34;74568.06;;;-145.10;28.67
56334;BME280;42240;53.626;55.886;2022-09-03T07:39:07;74591.78;;;-145.10;28.74
56334;BME280;42240;53.626;55.886;2022-09-03T07:40:40;74643.16;;;-145.10;28.57
56334;BME280;42240;53.626;55.886;2022-09-03T07:42:13;74657.00;;;-145.10;29.10
56334;BME280;42240;53.626;55.886;2022-09-03T07:43:46;74639.19;;;-145.10;28.77
56334;BME280;42240;53.626;55.886;2022-09-03T07:45:19;74607.59;;;-145.10;28.59
56334;BME280;42240;53.626;55.886;2022-09-03T07:46:52;74560.16;;;-145.10;28.68
56334;BME280;42240;53.626;55.886;2022-09-03T07:48:25;74530.50;;;-145.10;28.82
56334;BME280;42240;53.626;55.886;2022-09-03T07:49:58;74522.59;;;-145.10;28.56
56334;BME280;42240;53.626;55.886;2022-09-03T07:51:34;74540.38;;;-145.10;28.10
56334;BME280;42240;53.626;55.886;2022-09-03T07:53:08;74524.56;;;-145.10;29.04
56334;BME280;42240;53.626;55.886;2022-09-03T07:54:40;74538.41;;;-145.10;28.62
56334;BME280;42240;53.626;55.886;2022-09-03T07:56:15;74599.69;;;-145.10;28.08
56334;BME280;42240;53.626;55.886;2022-09-03T07:57:49;74577.94;;;-145.10;28.71
56334;BME280;42240;53.626;55.886;2022-09-03T07:59:22;74564.09;;;-145.10;28.88
56334;BME280;42240;53.626;55.886;2022-09-03T08:00:56;74589.78;;;-145.10;28.41
56334;BME280;42240;53.626;55.886;2022-09-03T08:02:29;74581.88;;;-145.10;28.73
56334;BME280;42240;53.626;55.886;2022-09-03T08:04:02;74548.28;;;-145.10;29.17
56334;BME280;42240;53.626;55.886;2022-09-03T08:05:40;74572.00;;;-145.10;28.21
56334;BME280;42240;53.626;55.886;2022-09-03T08:07:13;74587.81;;;-145.10;28.57
56334;BME280;42240;53.626;55.886;2022-09-03T08:08:46;74568.06;;;-145.10;27.87
56334;BME280;42240;53.626;55.886;2022-09-03T08:10:19;74611.53;;;-145.10;28.20
56334;BME280;42240;53.626;55.886;2022-09-03T08:11:53;74609.56;;;-145.10;28.26
56334;BME280;42240;53.626;55.886;2022-09-03T08:13:25;74599.69;;;-145.10;28.58
56334;BME280;42240;53.626;55.886;2022-09-03T08:14:58;74587.81;;;-145.10;28.26
56334;BME280;42240;53.626;55.886;2022-09-03T08:16:33;74629.31;;;-145.10;28.16
56334;BME280;42240;53.626;55.886;2022-09-03T08:18:06;74633.28;;;-145.10;28.02
56334;BME280;42240;53.626;55.886;2022-09-03T08:19:39;74645.13;;;-145.10;27.69
56334;BME280;42240;53.626;55.886;2022-09-03T08:21:14;74641.19;;;-145.10;27.77
56334;BME280;42240;53.626;55.886;2022-09-03T08:22:48;74666.88;;;-145.10;27.86
56334;BME280;42240;53.626;55.886;2022-09-03T08:24:21;74660.94;;;-145.10;28.04
56334;BME280;42240;53.626;55.886;2022-09-03T08:25:59;74660.94;;;-145.10;27.99
56334;BME280;42240;53.626;55.886;2022-09-03T08:27:32;74651.06;;;-145.10;28.26
56334;BME280;42240;53.626;55.886;2022-09-03T08:29:06;74633.28;;;-145.10;28.12
56334;BME280;42240;53.626;55.886;2022-09-03T08:30:39;74609.56;;;-145.10;27.46
56334;BME280;42240;53.626;55.886;2022-09-03T08:32:12;74658.97;;;-145.10;26.95
56334;BME280;42240;53.626;55.886;2022-09-03T08:33:46;74655.00;;;-145.10;26.19
56334;BME280;42240;53.626;55.886;2022-09-03T08:35:19;74653.03;;;-145.10;25.82
56334;BME280;42240;53.626;55.886;2022-09-03T08:36:53;74643.16;;;-145.10;26.55
56334;BME280;42240;53.626;55.886;2022-09-03T08:38:27;74662.91;;;-145.10;25.50
56334;BME280;42240;53.626;55.886;2022-09-03T08:40:00;74670.81;;;-145.10;25.36
56334;BME280;42240;53.626;55.886;2022-09-03T08:43:17;74704.44;;;-145.10;25.26
56334;BME280;42240;53.626;55.886;2022-09-03T08:44:52;74694.53;;;-145.10;26.04
56334;BME280;42240;53.626;55.886;2022-09-03T08:46:51;74710.34;;;-145.10;26.28
56334;BME280;42240;53.626;55.886;2022-09-03T08:48:20;74668.84;;;-145.10;26.56
56334;BME280;42240;53.626;55.886;2022-09-03T08:49:59;74658.97;;;-145.10;26.16
56334;BME280;42240;53.626;55.886;2022-09-03T08:51:34;74637.22;;;-145.10;26.30
56334;BME280;42240;53.626;55.886;2022-09-03T08:54:53;74593.75;;;-145.10;26.45
56334;BME280;42240;53.626;55.886;2022-09-03T08:56:30;74589.78;;;-145.10;26.05
56334;BME280;42240;53.626;55.886;2022-09-03T08:58:04;74603.63;;;-145.10;26.23
56334;BME280;42240;53.626;55.886;2022-09-03T08:59:37;74625.38;;;-145.10;26.13
56334;BME280;42240;53.626;55.886;2022-09-03T09:02:48;74639.19;;;-145.10;26.37
56334;BME280;42240;53.626;55.886;2022-09-03T09:13:15;74591.78;;;-145.10;26.22
56334;BME280;42240;53.626;55.886;2022-09-03T09:15:03;74583.88;;;-145.10;25.78
56334;BME280;42240;53.626;55.886;2022-09-03T09:16:49;74577.94;;;-145.10;26.12
56334;BME280;42240;53.626;55.886;2022-09-03T09:21:41;74492.94;;;-145.10;25.78